Terminal Aerodrome Forecast
Issued by NWS

Home | Current Version | Previous Version | Text Only | Print | Product List | Glossary On
Versions: 1 2 3 4 5 6 7 8 9 10 11 12 13 14 15
264
FTUS44 KLZK 102339
TAFLLQ
TAF
KLLQ 102339Z 1100/1124 12006KT P6SM SCT050
     FM110600 15005KT P6SM BKN050
     FM112000 17009KT P6SM VCSH OVC020=

USA.gov is the U.S. government's official web portal to all federal, state and local government web resources and services.